createdAt,value
2023-03-04T00:00:11.433Z,2.41
2023-03-04T00:02:59.629Z,2.36
2023-03-04T00:05:28.001Z,2.39
2023-03-04T00:07:56.027Z,2.31
2023-03-04T00:10:24.776Z,2.24
2023-03-04T00:12:52.851Z,2.24
2023-03-04T00:15:22.471Z,2.24
2023-03-04T00:17:50.656Z,2.19
2023-03-04T00:20:19.113Z,2.14
2023-03-04T00:22:48.087Z,2.09
2023-03-04T00:25:16.657Z,2.04
2023-03-04T00:27:44.714Z,2.04
2023-03-04T00:30:13.375Z,2.00
2023-03-04T00:32:42.765Z,2.02
2023-03-04T00:35:11.073Z,1.95
2023-03-04T00:37:39.151Z,1.87
2023-03-04T00:40:08.261Z,1.80
2023-03-04T00:42:36.382Z,1.85
2023-03-04T00:45:05.204Z,1.90
2023-03-04T00:47:33.289Z,1.82
2023-03-04T00:50:03.060Z,1.80
2023-03-04T00:52:31.185Z,1.77
2023-03-04T00:54:59.419Z,1.71
2023-03-04T00:57:27.477Z,1.69
2023-03-04T00:59:55.689Z,1.67
2023-03-04T01:02:24.952Z,1.67
2023-03-04T01:04:54.683Z,1.65
2023-03-04T01:07:24.549Z,1.63
2023-03-04T01:09:52.958Z,1.62
2023-03-04T01:12:20.993Z,1.57
2023-03-04T01:14:50.613Z,1.71
2023-03-04T01:17:18.937Z,1.73
2023-03-04T01:19:47.318Z,1.74
2023-03-04T01:22:16.720Z,1.66
2023-03-04T01:24:46.392Z,1.68
2023-03-04T01:27:14.432Z,1.66
2023-03-04T01:29:42.759Z,1.55
2023-03-04T01:32:10.827Z,1.59
2023-03-04T01:34:39.243Z,1.55
2023-03-04T01:37:07.339Z,1.54
2023-03-04T01:39:35.628Z,1.52
2023-03-04T01:42:05.254Z,1.51
2023-03-04T01:44:33.600Z,1.45
2023-03-04T01:47:01.591Z,1.33
2023-03-04T01:49:29.901Z,1.44
2023-03-04T01:51:58.067Z,1.42
2023-03-04T01:54:26.336Z,1.46
2023-03-04T01:56:54.431Z,1.46
2023-03-04T01:59:25.400Z,1.44
2023-03-04T02:01:55.032Z,1.44
2023-03-04T02:04:25.976Z,1.42
2023-03-04T02:06:54.364Z,1.42
2023-03-04T02:09:23.215Z,1.33
2023-03-04T02:11:52.253Z,1.39
2023-03-04T02:14:21.692Z,1.32
2023-03-04T02:16:51.523Z,1.32
2023-03-04T02:19:25.853Z,1.29
2023-03-04T02:21:53.878Z,1.22
2023-03-04T02:24:28.334Z,1.21
2023-03-04T02:26:57.815Z,1.21
2023-03-04T02:29:26.195Z,1.14
2023-03-04T02:31:55.392Z,1.13
2023-03-04T02:34:25.582Z,1.10
2023-03-04T02:36:55.600Z,1.01
2023-03-04T02:39:29.232Z,1.08
2023-03-04T02:41:59.458Z,1.21
2023-03-04T02:44:31.584Z,1.15
2023-03-04T02:47:00.056Z,1.22
2023-03-04T02:49:30.055Z,1.17
2023-03-04T02:52:02.467Z,1.23
2023-03-04T02:54:31.179Z,1.23
2023-03-04T02:57:03.151Z,1.20
2023-03-04T02:59:34.509Z,1.18
2023-03-04T03:02:02.777Z,1.17
2023-03-04T03:04:31.275Z,1.16
2023-03-04T03:06:59.338Z,1.08
2023-03-04T03:09:27.916Z,1.14
2023-03-04T03:11:57.469Z,1.02
2023-03-04T03:14:29.172Z,1.00
2023-03-04T03:16:57.446Z,0.92
2023-03-04T03:19:25.794Z,0.83
2023-03-04T03:21:55.111Z,0.82
2023-03-04T03:24:23.384Z,0.80
2023-03-04T03:26:51.423Z,0.83
2023-03-04T03:29:19.919Z,0.82
2023-03-04T03:31:49.592Z,0.83
2023-03-04T03:34:18.004Z,0.82
2023-03-04T03:36:46.160Z,0.64
2023-03-04T03:39:15.590Z,0.71
2023-03-04T03:41:43.661Z,0.68
2023-03-04T03:44:12.044Z,0.63
2023-03-04T03:46:40.244Z,0.65
2023-03-04T03:49:09.866Z,0.67
2023-03-04T03:51:37.870Z,0.69
2023-03-04T03:54:06.176Z,0.64
2023-03-04T03:56:34.148Z,0.63
2023-03-04T03:59:02.630Z,0.67
2023-03-04T04:01:30.724Z,0.74
2023-03-04T04:03:59.006Z,0.70
2023-03-04T04:06:28.699Z,0.75
2023-03-04T04:08:57.008Z,0.72
2023-03-04T04:11:25.060Z,0.78
2023-03-04T04:13:53.356Z,0.73
2023-03-04T04:16:21.538Z,0.83
2023-03-04T04:18:49.875Z,0.83
2023-03-04T04:21:17.955Z,0.89
2023-03-04T04:23:47.564Z,0.81
2023-03-04T04:26:15.630Z,0.83
2023-03-04T04:28:43.914Z,0.85
2023-03-04T04:31:12.057Z,0.73
2023-03-04T04:33:40.379Z,0.55
2023-03-04T04:36:10.960Z,0.36
2023-03-04T04:38:39.205Z,0.44
2023-03-04T04:41:17.682Z,0.39
2023-03-04T04:43:45.935Z,0.25
2023-03-04T04:46:14.014Z,0.35
2023-03-04T04:48:42.360Z,0.23
2023-03-04T04:51:10.407Z,0.24
2023-03-04T04:53:38.926Z,0.27
2023-03-04T04:56:13.101Z,0.24
2023-03-04T04:58:41.609Z,0.17
2023-03-04T05:01:09.800Z,0.06
2023-03-04T05:03:38.915Z,-0.07
2023-03-04T05:06:08.874Z,0.04
2023-03-04T05:08:37.385Z,-0.02
2023-03-04T05:11:06.708Z,0.16
2023-03-04T05:13:36.324Z,0.24
2023-03-04T05:16:05.162Z,0.38
2023-03-04T05:18:33.533Z,0.46
2023-03-04T05:21:03.157Z,0.64
2023-03-04T05:23:33.822Z,0.68
2023-03-04T05:26:02.042Z,0.78
2023-03-04T05:28:30.742Z,0.84
2023-03-04T05:31:00.680Z,0.79
2023-03-04T05:33:29.125Z,0.76
2023-03-04T05:35:57.384Z,0.82
2023-03-04T05:38:26.923Z,0.88
2023-03-04T05:40:57.880Z,0.95
2023-03-04T05:43:26.387Z,0.95
2023-03-04T05:45:54.433Z,0.99
2023-03-04T05:48:24.256Z,1.08
2023-03-04T05:50:54.742Z,1.11
2023-03-04T05:53:23.131Z,1.30
2023-03-04T05:55:51.421Z,1.26
2023-03-04T05:58:20.136Z,1.30
2023-03-04T06:00:48.646Z,1.37
2023-03-04T06:03:17.643Z,1.44
2023-03-04T06:05:47.086Z,1.59
2023-03-04T06:08:16.656Z,1.57
2023-03-04T06:10:44.683Z,1.59
2023-03-04T06:13:13.144Z,1.57
2023-03-04T06:15:41.575Z,1.64
2023-03-04T06:18:10.142Z,1.70
2023-03-04T06:20:38.502Z,1.75
2023-03-04T06:23:08.266Z,1.86
2023-03-04T06:25:36.470Z,1.66
2023-03-04T06:28:04.942Z,1.67
2023-03-04T06:30:32.969Z,1.69
2023-03-04T06:33:01.247Z,1.78
2023-03-04T06:35:29.508Z,1.78
2023-03-04T06:37:57.789Z,1.84
2023-03-04T06:40:27.263Z,1.87
2023-03-04T06:42:55.651Z,1.84
2023-03-04T06:45:23.724Z,1.90
2023-03-04T06:47:51.982Z,1.96
2023-03-04T06:50:20.292Z,1.88
2023-03-04T06:52:49.354Z,1.93
2023-03-04T06:55:17.565Z,1.97
2023-03-04T06:57:48.628Z,1.99
2023-03-04T07:00:18.117Z,2.07
2023-03-04T07:02:46.503Z,2.07
2023-03-04T07:05:15.145Z,2.10
2023-03-04T07:07:43.477Z,2.28
2023-03-04T07:10:12.496Z,2.27
2023-03-04T07:12:40.851Z,2.27
2023-03-04T07:15:11.535Z,2.31
2023-03-04T07:17:39.870Z,2.41
2023-03-04T07:20:08.785Z,2.44
2023-03-04T07:22:37.279Z,2.45
2023-03-04T07:25:06.510Z,2.49
2023-03-04T07:27:34.923Z,2.56
2023-03-04T07:30:03.238Z,2.44
2023-03-04T07:32:34.422Z,2.46
2023-03-04T07:35:03.477Z,2.68
2023-03-04T07:37:31.922Z,2.59
2023-03-04T07:40:00.006Z,2.53
2023-03-04T07:42:28.810Z,2.19
2023-03-04T07:45:05.433Z,2.18
2023-03-04T07:47:35.169Z,2.25
2023-03-04T07:50:03.443Z,2.19
2023-03-04T07:52:31.778Z,2.31
2023-03-04T07:54:59.831Z,2.59
2023-03-04T07:57:28.141Z,2.50
2023-03-04T07:59:56.214Z,2.55
2023-03-04T08:02:24.608Z,2.62
2023-03-04T08:04:54.128Z,2.48
2023-03-04T08:07:22.490Z,2.43
2023-03-04T08:09:50.732Z,2.21
2023-03-04T08:12:19.248Z,2.38
2023-03-04T08:14:47.483Z,2.27
2023-03-04T08:17:15.937Z,2.28
2023-03-04T08:19:44.005Z,2.11
2023-03-04T08:22:13.779Z,2.12
2023-03-04T08:24:41.827Z,2.45
2023-03-04T08:27:10.328Z,1.95
2023-03-04T08:29:38.406Z,2.09
2023-03-04T08:32:07.204Z,2.20
2023-03-04T08:34:35.346Z,2.20
2023-03-04T08:37:03.675Z,2.27
2023-03-04T08:39:33.303Z,2.40
2023-03-04T08:42:01.825Z,2.38
2023-03-04T08:44:29.882Z,2.54
2023-03-04T08:46:58.402Z,2.63
2023-03-04T08:49:26.468Z,2.65
2023-03-04T08:51:54.823Z,2.74
2023-03-04T08:54:22.866Z,2.93
2023-03-04T08:56:52.496Z,2.95
2023-03-04T08:59:20.617Z,2.75
2023-03-04T09:01:48.976Z,2.90
2023-03-04T09:04:17.067Z,3.01
2023-03-04T09:06:45.389Z,2.92
2023-03-04T09:09:13.425Z,3.12
2023-03-04T09:11:41.796Z,3.18
2023-03-04T09:14:11.186Z,3.23
2023-03-04T09:16:39.441Z,3.18
2023-03-04T09:19:07.529Z,2.94
2023-03-04T09:21:35.899Z,2.99
2023-03-04T09:24:04.235Z,3.03
2023-03-04T09:26:32.647Z,3.01
2023-03-04T09:29:02.556Z,3.31
2023-03-04T09:31:32.950Z,3.39
2023-03-04T09:34:01.331Z,3.30
2023-03-04T09:36:29.653Z,3.35
2023-03-04T09:39:00.482Z,3.42
2023-03-04T09:41:38.823Z,3.55
2023-03-04T09:44:13.426Z,3.51
2023-03-04T09:46:44.806Z,3.59
2023-03-04T09:49:13.665Z,3.49
2023-03-04T09:51:47.210Z,3.38
2023-03-04T09:54:19.900Z,3.50
2023-03-04T09:56:50.644Z,3.32
2023-03-04T09:59:24.664Z,3.40
2023-03-04T10:01:56.024Z,3.31
2023-03-04T10:04:32.339Z,3.42
2023-03-04T10:07:01.684Z,3.54
2023-03-04T10:09:31.435Z,3.70
2023-03-04T10:12:02.768Z,3.84
2023-03-04T10:14:39.856Z,3.91
2023-03-04T10:17:15.058Z,3.94
2023-03-04T10:19:52.783Z,3.90
2023-03-04T10:22:27.193Z,3.52
2023-03-04T10:24:57.636Z,3.33
2023-03-04T10:27:26.044Z,3.50
2023-03-04T10:29:54.306Z,3.76
2023-03-04T10:32:24.265Z,3.71
2023-03-04T10:34:52.333Z,3.71
2023-03-04T10:37:20.590Z,4.09
2023-03-04T10:39:49.521Z,3.91
2023-03-04T10:42:27.729Z,3.91
2023-03-04T10:44:57.608Z,4.01
2023-03-04T10:47:28.779Z,4.02
2023-03-04T10:49:58.291Z,3.95
2023-03-04T10:52:30.002Z,3.92
2023-03-04T10:54:59.788Z,4.13
2023-03-04T10:57:34.351Z,4.02
2023-03-04T11:00:02.648Z,4.22
2023-03-04T11:02:34.818Z,4.22
2023-03-04T11:05:18.640Z,4.12
2023-03-04T11:07:55.657Z,4.34
2023-03-04T11:10:26.695Z,4.53
2023-03-04T11:12:58.079Z,4.60
2023-03-04T11:15:28.260Z,4.64
2023-03-04T11:18:00.496Z,4.61
2023-03-04T11:20:33.288Z,4.76
2023-03-04T11:23:05.151Z,4.69
2023-03-04T11:25:36.208Z,4.74
2023-03-04T11:28:08.797Z,4.89
2023-03-04T11:30:42.155Z,4.92
2023-03-04T11:33:16.572Z,5.01
2023-03-04T11:35:53.292Z,5.30
2023-03-04T11:38:23.113Z,5.17
2023-03-04T11:40:54.384Z,5.09
2023-03-04T11:43:26.730Z,5.15
2023-03-04T11:46:33.399Z,5.20
2023-03-04T11:49:12.424Z,5.41
2023-03-04T11:51:44.947Z,5.31
2023-03-04T11:54:18.824Z,5.58
2023-03-04T11:56:49.451Z,5.40
2023-03-04T11:59:49.488Z,5.40
2023-03-04T12:02:20.374Z,5.54
2023-03-04T12:05:17.410Z,5.47
2023-03-04T12:07:58.934Z,5.51
2023-03-04T12:10:30.243Z,5.47
2023-03-04T12:13:11.064Z,5.50
2023-03-04T12:15:46.942Z,5.54
2023-03-04T12:18:43.732Z,5.65
2023-03-04T12:21:21.009Z,6.02
2023-03-04T12:24:04.302Z,5.96
2023-03-04T12:26:37.859Z,5.94
2023-03-04T12:29:08.942Z,6.07
2023-03-04T12:31:39.927Z,6.30
2023-03-04T12:34:33.569Z,6.20
2023-03-04T12:37:22.997Z,6.35
2023-03-04T12:40:01.481Z,6.24
2023-03-04T12:42:39.029Z,6.13
2023-03-04T12:45:17.803Z,6.14
2023-03-04T12:47:53.415Z,6.26
2023-03-04T12:50:31.419Z,6.28
2023-03-04T12:53:10.954Z,6.24
2023-03-04T12:55:40.456Z,6.33
2023-03-04T12:58:16.358Z,6.46
2023-03-04T13:00:50.587Z,6.29
2023-03-04T13:03:23.313Z,6.26
2023-03-04T13:06:28.048Z,6.26
2023-03-04T13:09:02.139Z,6.41
2023-03-04T13:11:52.696Z,6.27
2023-03-04T13:14:29.571Z,6.33
2023-03-04T13:17:01.526Z,6.25
2023-03-04T13:19:52.546Z,6.29
2023-03-04T13:22:34.216Z,6.17
2023-03-04T13:25:37.759Z,6.13
2023-03-04T13:28:33.000Z,6.17
2023-03-04T13:31:14.981Z,6.23
2023-03-04T13:34:01.948Z,6.33
2023-03-04T13:36:55.919Z,6.28
2023-03-04T13:39:34.792Z,6.27
2023-03-04T13:42:06.540Z,6.22
2023-03-04T13:45:04.920Z,6.20
2023-03-04T13:47:48.618Z,6.23
2023-03-04T13:50:31.641Z,6.29
2023-03-04T13:53:02.615Z,6.24
2023-03-04T13:55:39.196Z,6.22
2023-03-04T13:58:24.232Z,6.28
2023-03-04T14:00:55.132Z,6.40
2023-03-04T14:03:25.812Z,6.31
2023-03-04T14:06:17.890Z,6.31
2023-03-04T14:08:46.904Z,6.27
2023-03-04T14:11:16.883Z,6.28
2023-03-04T14:13:46.593Z,6.25
2023-03-04T14:16:20.901Z,6.14
2023-03-04T14:18:59.076Z,6.11
2023-03-04T14:21:27.146Z,6.13
2023-03-04T14:24:07.374Z,6.14
2023-03-04T14:26:35.989Z,6.10
2023-03-04T14:29:26.971Z,5.99
2023-03-04T14:31:55.721Z,5.97
2023-03-04T14:34:31.977Z,6.07
2023-03-04T14:37:00.190Z,6.15
2023-03-04T14:39:31.460Z,6.24
2023-03-04T14:42:02.347Z,6.25
2023-03-04T14:44:36.172Z,6.29
2023-03-04T14:47:11.380Z,6.30
2023-03-04T14:49:40.318Z,6.26
2023-03-04T14:52:13.769Z,6.04
2023-03-04T14:54:42.870Z,6.04
2023-03-04T14:57:26.346Z,5.92
2023-03-04T14:59:56.203Z,5.95
2023-03-04T15:02:31.467Z,5.82
2023-03-04T15:05:01.829Z,5.94
2023-03-04T15:07:33.200Z,5.93
2023-03-04T15:10:04.471Z,5.82
2023-03-04T15:12:34.191Z,5.65
2023-03-04T15:15:05.841Z,5.81
2023-03-04T15:17:38.643Z,5.86
2023-03-04T15:20:27.204Z,5.97
2023-03-04T15:23:00.825Z,5.97
2023-03-04T15:25:29.738Z,5.73
2023-03-04T15:28:00.005Z,5.78
2023-03-04T15:30:33.217Z,5.57
2023-03-04T15:33:01.801Z,5.58
2023-03-04T15:35:32.555Z,5.87
2023-03-04T15:38:01.534Z,5.80
2023-03-04T15:40:32.357Z,5.62
2023-03-04T15:43:02.870Z,5.69
2023-03-04T15:45:35.935Z,5.61
2023-03-04T15:48:07.774Z,5.81
2023-03-04T15:50:37.590Z,5.79
2023-03-04T15:53:08.283Z,5.56
2023-03-04T15:55:36.992Z,5.52
2023-03-04T15:58:05.553Z,5.41
2023-03-04T16:00:35.276Z,5.50
2023-03-04T16:03:03.385Z,5.53
2023-03-04T16:05:32.122Z,5.65
2023-03-04T16:08:00.189Z,5.57
2023-03-04T16:10:30.663Z,5.47
2023-03-04T16:12:58.750Z,5.70
2023-03-04T16:15:28.954Z,5.76
2023-03-04T16:17:59.656Z,5.69
2023-03-04T16:20:29.928Z,5.83
2023-03-04T16:23:00.066Z,5.69
2023-03-04T16:25:30.171Z,5.60
2023-03-04T16:28:02.650Z,5.78
2023-03-04T16:30:31.484Z,5.63
2023-03-04T16:33:00.858Z,5.61
2023-03-04T16:35:29.714Z,5.63
2023-03-04T16:37:58.511Z,5.60
2023-03-04T16:40:29.690Z,5.69
2023-03-04T16:42:58.103Z,5.77
2023-03-04T16:45:30.114Z,5.81
2023-03-04T16:47:59.549Z,5.63
2023-03-04T16:50:30.335Z,5.66
2023-03-04T16:52:58.339Z,5.54
2023-03-04T16:55:28.523Z,5.58
2023-03-04T16:57:57.679Z,5.63
2023-03-04T17:00:28.982Z,5.61
2023-03-04T17:13:26.179Z,5.74
2023-03-04T17:15:54.621Z,5.71
2023-03-04T17:18:22.687Z,5.68
2023-03-04T17:20:57.228Z,5.71
2023-03-04T17:23:39.727Z,5.74
2023-03-04T17:26:09.189Z,5.79
2023-03-04T17:28:39.065Z,5.81
2023-03-04T17:31:40.445Z,5.72
2023-03-04T17:34:14.546Z,5.90
2023-03-04T17:36:42.954Z,5.82
2023-03-04T17:39:12.389Z,5.70
2023-03-04T17:41:40.990Z,5.69
2023-03-04T17:44:11.494Z,5.70
2023-03-04T17:46:40.153Z,5.64
2023-03-04T17:49:08.244Z,5.65
2023-03-04T17:51:37.927Z,5.63
2023-03-04T17:54:08.413Z,5.55
2023-03-04T17:56:38.001Z,5.63
2023-03-04T17:59:09.721Z,5.58
2023-03-04T18:01:39.711Z,5.62
2023-03-04T18:04:08.290Z,5.59
2023-03-04T18:06:36.709Z,5.68
2023-03-04T18:09:05.158Z,5.76
2023-03-04T18:11:34.688Z,5.78
2023-03-04T18:14:02.825Z,5.86
2023-03-04T18:16:31.560Z,5.77
2023-03-04T18:19:02.185Z,5.79
2023-03-04T18:21:30.898Z,5.92
2023-03-04T18:23:59.505Z,5.87
2023-03-04T18:26:28.221Z,5.93
2023-03-04T18:28:57.034Z,5.85
2023-03-04T18:31:31.064Z,5.83
2023-03-04T18:34:02.200Z,5.79
2023-03-04T18:36:30.636Z,5.88
2023-03-04T18:38:59.445Z,5.85
2023-03-04T18:41:28.321Z,5.89
2023-03-04T18:43:56.964Z,5.88
2023-03-04T18:46:31.908Z,5.83
2023-03-04T18:49:04.296Z,5.83
2023-03-04T18:51:32.744Z,5.88
2023-03-04T18:54:00.764Z,5.86
2023-03-04T18:56:37.611Z,5.75
2023-03-04T18:59:08.738Z,5.77
2023-03-04T19:01:37.937Z,5.86
2023-03-04T19:04:07.476Z,5.86
2023-03-04T19:06:36.383Z,5.85
2023-03-04T19:09:05.387Z,5.92
2023-03-04T19:11:33.646Z,5.94
2023-03-04T19:14:01.840Z,5.87
2023-03-04T19:16:30.308Z,5.87
2023-03-04T19:18:58.546Z,5.93
2023-03-04T19:21:28.274Z,5.89
2023-03-04T19:23:56.324Z,5.89
2023-03-04T19:26:24.704Z,5.99
2023-03-04T19:28:52.712Z,5.92
2023-03-04T19:31:21.112Z,5.91
2023-03-04T19:33:49.279Z,5.90
2023-03-04T19:36:17.590Z,5.90
2023-03-04T19:38:47.011Z,5.94
2023-03-04T19:41:17.165Z,5.84
2023-03-04T19:43:46.035Z,5.89
2023-03-04T19:46:15.222Z,5.82
2023-03-04T19:48:45.031Z,5.80
2023-03-04T19:51:16.709Z,5.76
2023-03-04T19:53:44.972Z,5.82
2023-03-04T19:56:14.757Z,5.83
2023-03-04T19:58:42.853Z,5.70
2023-03-04T20:01:21.184Z,5.79
2023-03-04T20:03:49.421Z,5.78
2023-03-04T20:06:17.757Z,5.84
2023-03-04T20:08:45.805Z,5.81
2023-03-04T20:11:15.530Z,5.80
2023-03-04T20:13:43.752Z,5.77
2023-03-04T20:16:12.694Z,5.76
2023-03-04T20:18:41.044Z,5.78
2023-03-04T20:21:12.493Z,5.76
2023-03-04T20:23:40.667Z,5.85
2023-03-04T20:26:09.007Z,5.91
2023-03-04T20:28:51.636Z,5.92
2023-03-04T20:31:22.650Z,5.86
2023-03-04T20:33:51.603Z,5.88
2023-03-04T20:36:21.160Z,5.90
2023-03-04T20:38:51.264Z,5.87
2023-03-04T20:41:25.318Z,5.82
2023-03-04T20:43:54.815Z,5.78
2023-03-04T20:46:32.317Z,5.81
2023-03-04T20:49:02.238Z,5.76
2023-03-04T20:51:31.871Z,5.79
2023-03-04T20:54:00.830Z,5.80
2023-03-04T20:56:29.606Z,5.86
2023-03-04T20:58:59.448Z,5.85
2023-03-04T21:01:27.875Z,5.84
2023-03-04T21:03:56.089Z,5.77
2023-03-04T21:06:25.176Z,5.78
2023-03-04T21:08:53.506Z,5.73
2023-03-04T21:11:23.339Z,5.77
2023-03-04T21:13:55.997Z,5.74
2023-03-04T21:16:27.206Z,5.78
2023-03-04T21:18:55.511Z,5.78
2023-03-04T21:21:26.035Z,5.83
2023-03-04T21:23:55.406Z,5.85
2023-03-04T21:26:24.151Z,5.88
2023-03-04T21:28:52.622Z,5.96
2023-03-04T21:31:23.020Z,5.85
2023-03-04T21:33:53.138Z,5.83
2023-03-04T21:36:22.058Z,5.85
2023-03-04T21:38:50.575Z,5.92
2023-03-04T21:41:21.420Z,5.93
2023-03-04T21:43:49.932Z,5.90
2023-03-04T21:46:19.070Z,5.87
2023-03-04T21:48:48.214Z,5.87
2023-03-04T21:51:19.725Z,5.86
2023-03-04T21:53:47.952Z,5.92
2023-03-04T21:56:16.329Z,5.92
2023-03-04T21:58:45.809Z,5.91
2023-03-04T22:01:15.417Z,5.97
2023-03-04T22:03:43.757Z,5.98
2023-03-04T22:06:13.373Z,6.01
2023-03-04T22:08:42.952Z,5.95
2023-03-04T22:11:12.461Z,5.81
2023-03-04T22:13:40.823Z,5.90
2023-03-04T22:16:10.587Z,5.81
2023-03-04T22:18:40.658Z,5.76
2023-03-04T22:21:11.054Z,5.82
2023-03-04T22:23:39.699Z,5.82
2023-03-04T22:26:12.569Z,5.80
2023-03-04T22:28:41.266Z,5.80
2023-03-04T22:31:21.212Z,5.80
2023-03-04T22:33:49.305Z,5.74
2023-03-04T22:36:17.611Z,5.74
2023-03-04T22:38:45.805Z,5.79
2023-03-04T22:41:16.820Z,5.79
2023-03-04T22:43:49.748Z,5.72
2023-03-04T22:46:20.637Z,5.79
2023-03-04T22:48:49.075Z,5.82
2023-03-04T22:51:17.407Z,5.81
2023-03-04T22:53:45.800Z,5.90
2023-03-04T22:56:15.653Z,6.04
2023-03-04T22:58:44.331Z,6.04
2023-03-04T23:01:14.359Z,6.06
2023-03-04T23:03:44.198Z,5.99
2023-03-04T23:06:14.432Z,5.99
2023-03-04T23:08:44.831Z,6.03
2023-03-04T23:11:16.980Z,5.98
2023-03-04T23:13:45.188Z,5.92
2023-03-04T23:16:14.266Z,5.90
2023-03-04T23:18:43.388Z,5.86
2023-03-04T23:21:14.595Z,5.85
2023-03-04T23:23:43.263Z,5.82
2023-03-04T23:26:16.434Z,5.93
2023-03-04T23:28:44.935Z,5.91
2023-03-04T23:31:14.627Z,5.90
2023-03-04T23:33:43.352Z,5.86
2023-03-04T23:36:15.225Z,5.95
2023-03-04T23:38:44.346Z,5.96
2023-03-04T23:41:13.643Z,5.96
2023-03-04T23:43:43.270Z,5.93
2023-03-04T23:46:12.393Z,5.91
2023-03-04T23:48:43.124Z,5.93
2023-03-04T23:51:11.567Z,5.95
2023-03-04T23:53:39.762Z,5.87
2023-03-04T23:56:09.190Z,5.85
2023-03-04T23:58:37.581Z,5.84
